sensor_id;sensor_type;location;lat;lon;timestamp;temperature;humidity
38118;DHT22;23928;47.562;7.508;2023-12-20T00:02:16;4.30;99.90
38118;DHT22;23928;47.562;7.508;2023-12-20T00:04:42;4.30;99.90
38118;DHT22;23928;47.562;7.508;2023-12-20T00:07:07;4.20;99.90
38118;DHT22;23928;47.562;7.508;2023-12-20T00:09:33;4.10;99.90
38118;DHT22;23928;47.562;7.508;2023-12-20T00:11:58;4.10;99.90
38118;DHT22;23928;47.562;7.508;2023-12-20T00:14:24;4.10;99.90
38118;DHT22;23928;47.562;7.508;2023-12-20T00:16:49;4.20;99.90
38118;DHT22;23928;47.562;7.508;2023-12-20T00:19:15;4.40;99.90
38118;DHT22;23928;47.562;7.508;2023-12-20T00:21:41;4.40;99.90
38118;DHT22;23928;47.562;7.508;2023-12-20T00:24:06;4.30;99.90
38118;DHT22;23928;47.562;7.508;2023-12-20T00:26:32;4.30;99.90
38118;DHT22;23928;47.562;7.508;2023-12-20T00:28:57;4.50;99.90
38118;DHT22;23928;47.562;7.508;2023-12-20T00:31:23;4.60;99.90
38118;DHT22;23928;47.562;7.508;2023-12-20T00:33:48;4.50;99.90
38118;DHT22;23928;47.562;7.508;2023-12-20T00:36:14;4.40;99.90
38118;DHT22;23928;47.562;7.508;2023-12-20T00:38:40;4.40;99.90
38118;DHT22;23928;47.562;7.508;2023-12-20T00:41:05;4.30;99.90
38118;DHT22;23928;47.562;7.508;2023-12-20T00:43:31;4.40;99.90
38118;DHT22;23928;47.562;7.508;2023-12-20T00:45:57;4.40;99.90
38118;DHT22;23928;47.562;7.508;2023-12-20T00:48:22;4.40;99.90
38118;DHT22;23928;47.562;7.508;2023-12-20T00:50:48;4.40;99.90
38118;DHT22;23928;47.562;7.508;2023-12-20T00:53:14;4.50;99.90
38118;DHT22;23928;47.562;7.508;2023-12-20T00:55:39;4.30;99.90
38118;DHT22;23928;47.562;7.508;2023-12-20T00:58:05;4.40;99.90
38118;DHT22;23928;47.562;7.508;2023-12-20T01:00:31;4.40;99.90
38118;DHT22;23928;47.562;7.508;2023-12-20T01:02:57;4.50;99.90
38118;DHT22;23928;47.562;7.508;2023-12-20T01:05:23;4.40;99.90
38118;DHT22;23928;47.562;7.508;2023-12-20T01:07:49;4.30;99.90
38118;DHT22;23928;47.562;7.508;2023-12-20T01:10:14;4.20;99.90
38118;DHT22;23928;47.562;7.508;2023-12-20T01:12:40;4.30;99.90
38118;DHT22;23928;47.562;7.508;2023-12-20T01:15:06;4.20;99.90
38118;DHT22;23928;47.562;7.508;2023-12-20T01:17:32;4.50;99.90
38118;DHT22;23928;47.562;7.508;2023-12-20T01:19:57;4.20;99.90
38118;DHT22;23928;47.562;7.508;2023-12-20T01:22:23;4.40;99.90
38118;DHT22;23928;47.562;7.508;2023-12-20T01:24:49;4.30;99.90
38118;DHT22;23928;47.562;7.508;2023-12-20T01:27:14;4.40;99.90
38118;DHT22;23928;47.562;7.508;2023-12-20T01:29:42;4.40;99.90
38118;DHT22;23928;47.562;7.508;2023-12-20T01:32:07;4.40;99.90
38118;DHT22;23928;47.562;7.508;2023-12-20T01:34:33;4.50;99.90
38118;DHT22;23928;47.562;7.508;2023-12-20T01:36:59;4.50;99.90
38118;DHT22;23928;47.562;7.508;2023-12-20T01:39:25;4.40;99.90
38118;DHT22;23928;47.562;7.508;2023-12-20T01:41:51;4.40;99.90
38118;DHT22;23928;47.562;7.508;2023-12-20T01:44:16;4.30;99.90
38118;DHT22;23928;47.562;7.508;2023-12-20T01:46:42;4.30;99.90
38118;DHT22;23928;47.562;7.508;2023-12-20T01:49:08;4.40;99.90
38118;DHT22;23928;47.562;7.508;2023-12-20T01:51:34;4.40;99.90
38118;DHT22;23928;47.562;7.508;2023-12-20T01:54:00;4.40;99.90
38118;DHT22;23928;47.562;7.508;2023-12-20T01:56:27;4.30;99.90
38118;DHT22;23928;47.562;7.508;2023-12-20T01:58:54;4.40;99.90
38118;DHT22;23928;47.562;7.508;2023-12-20T02:01:21;4.40;99.90
38118;DHT22;23928;47.562;7.508;2023-12-20T02:03:47;4.50;99.90
38118;DHT22;23928;47.562;7.508;2023-12-20T02:06:13;4.40;99.90
38118;DHT22;23928;47.562;7.508;2023-12-20T02:08:39;4.30;99.90
38118;DHT22;23928;47.562;7.508;2023-12-20T02:11:04;4.30;99.90
38118;DHT22;23928;47.562;7.508;2023-12-20T02:13:31;4.40;99.90
38118;DHT22;23928;47.562;7.508;2023-12-20T02:15:56;4.40;99.90
38118;DHT22;23928;47.562;7.508;2023-12-20T02:18:22;4.40;99.90
38118;DHT22;23928;47.562;7.508;2023-12-20T02:20:48;4.30;99.90
38118;DHT22;23928;47.562;7.508;2023-12-20T02:23:13;4.30;99.90
38118;DHT22;23928;47.562;7.508;2023-12-20T02:25:39;4.20;99.90
38118;DHT22;23928;47.562;7.508;2023-12-20T02:28:05;4.20;99.90
38118;DHT22;23928;47.562;7.508;2023-12-20T02:30:32;4.40;99.90
38118;DHT22;23928;47.562;7.508;2023-12-20T02:32:59;4.40;99.90
38118;DHT22;23928;47.562;7.508;2023-12-20T02:35:25;4.30;99.90
38118;DHT22;23928;47.562;7.508;2023-12-20T02:37:50;4.50;99.90
38118;DHT22;23928;47.562;7.508;2023-12-20T02:40:16;4.40;99.90
38118;DHT22;23928;47.562;7.508;2023-12-20T02:42:42;4.40;99.90
38118;DHT22;23928;47.562;7.508;2023-12-20T02:45:08;4.40;99.90
38118;DHT22;23928;47.562;7.508;2023-12-20T02:47:33;4.30;99.90
38118;DHT22;23928;47.562;7.508;2023-12-20T02:49:59;4.40;99.90
38118;DHT22;23928;47.562;7.508;2023-12-20T02:52:25;4.40;99.90
38118;DHT22;23928;47.562;7.508;2023-12-20T02:54:50;4.50;99.90
38118;DHT22;23928;47.562;7.508;2023-12-20T02:57:16;4.50;99.90
38118;DHT22;23928;47.562;7.508;2023-12-20T02:59:41;4.30;99.90
38118;DHT22;23928;47.562;7.508;2023-12-20T03:02:07;4.10;99.90
38118;DHT22;23928;47.562;7.508;2023-12-20T03:04:33;4.00;99.90
38118;DHT22;23928;47.562;7.508;2023-12-20T03:06:58;4.10;99.90
38118;DHT22;23928;47.562;7.508;2023-12-20T03:09:24;4.20;99.90
38118;DHT22;23928;47.562;7.508;2023-12-20T03:11:49;4.30;99.90
38118;DHT22;23928;47.562;7.508;2023-12-20T03:14:15;4.30;99.90
38118;DHT22;23928;47.562;7.508;2023-12-20T03:16:41;4.40;99.90
38118;DHT22;23928;47.562;7.508;2023-12-20T03:19:06;4.40;99.90
38118;DHT22;23928;47.562;7.508;2023-12-20T03:21:32;4.30;99.90
38118;DHT22;23928;47.562;7.508;2023-12-20T03:23:57;4.40;99.90
38118;DHT22;23928;47.562;7.508;2023-12-20T03:26:23;4.40;99.90
38118;DHT22;23928;47.562;7.508;2023-12-20T03:28:49;4.40;99.90
38118;DHT22;23928;47.562;7.508;2023-12-20T03:31:14;4.40;99.90
38118;DHT22;23928;47.562;7.508;2023-12-20T03:33:40;4.30;99.90
38118;DHT22;23928;47.562;7.508;2023-12-20T03:36:06;4.40;99.90
38118;DHT22;23928;47.562;7.508;2023-12-20T03:38:31;4.30;99.90
38118;DHT22;23928;47.562;7.508;2023-12-20T03:40:57;4.50;99.90
38118;DHT22;23928;47.562;7.508;2023-12-20T03:43:22;4.50;99.90
38118;DHT22;23928;47.562;7.508;2023-12-20T03:45:48;4.40;99.90
38118;DHT22;23928;47.562;7.508;2023-12-20T03:48:14;4.60;99.90
38118;DHT22;23928;47.562;7.508;2023-12-20T03:50:39;4.50;99.90
38118;DHT22;23928;47.562;7.508;2023-12-20T03:53:05;4.60;99.90
38118;DHT22;23928;47.562;7.508;2023-12-20T03:55:30;4.50;99.90
38118;DHT22;23928;47.562;7.508;2023-12-20T03:57:56;4.60;99.90
38118;DHT22;23928;47.562;7.508;2023-12-20T04:00:21;4.60;99.90
38118;DHT22;23928;47.562;7.508;2023-12-20T04:02:47;4.60;99.90
38118;DHT22;23928;47.562;7.508;2023-12-20T04:05:13;4.60;99.90
38118;DHT22;23928;47.562;7.508;2023-12-20T04:07:38;4.70;99.90
38118;DHT22;23928;47.562;7.508;2023-12-20T04:10:04;4.60;99.90
38118;DHT22;23928;47.562;7.508;2023-12-20T04:12:31;4.60;99.90
38118;DHT22;23928;47.562;7.508;2023-12-20T04:14:57;4.60;99.90
38118;DHT22;23928;47.562;7.508;2023-12-20T04:17:23;4.70;99.90
38118;DHT22;23928;47.562;7.508;2023-12-20T04:19:49;4.70;99.90
38118;DHT22;23928;47.562;7.508;2023-12-20T04:22:15;4.70;99.90
38118;DHT22;23928;47.562;7.508;2023-12-20T04:24:41;4.80;99.90
38118;DHT22;23928;47.562;7.508;2023-12-20T04:27:07;4.80;99.90
38118;DHT22;23928;47.562;7.508;2023-12-20T04:29:34;4.70;99.90
38118;DHT22;23928;47.562;7.508;2023-12-20T04:31:59;4.70;99.90
38118;DHT22;23928;47.562;7.508;2023-12-20T04:34:25;4.80;99.90
38118;DHT22;23928;47.562;7.508;2023-12-20T04:36:51;4.70;99.90
38118;DHT22;23928;47.562;7.508;2023-12-20T04:39:17;4.80;99.90
38118;DHT22;23928;47.562;7.508;2023-12-20T04:41:42;4.70;99.90
38118;DHT22;23928;47.562;7.508;2023-12-20T04:44:08;4.70;99.90
38118;DHT22;23928;47.562;7.508;2023-12-20T04:46:34;4.60;99.90
38118;DHT22;23928;47.562;7.508;2023-12-20T04:48:59;4.80;99.90
38118;DHT22;23928;47.562;7.508;2023-12-20T04:51:25;4.90;99.90
38118;DHT22;23928;47.562;7.508;2023-12-20T04:53:50;5.00;99.90
38118;DHT22;23928;47.562;7.508;2023-12-20T04:56:16;4.90;99.90
38118;DHT22;23928;47.562;7.508;2023-12-20T04:58:42;4.90;99.90
38118;DHT22;23928;47.562;7.508;2023-12-20T05:01:08;4.80;99.90
38118;DHT22;23928;47.562;7.508;2023-12-20T05:03:35;4.90;99.90
38118;DHT22;23928;47.562;7.508;2023-12-20T05:06:00;4.90;99.90
38118;DHT22;23928;47.562;7.508;2023-12-20T05:08:26;4.90;99.90
38118;DHT22;23928;47.562;7.508;2023-12-20T05:10:54;5.00;99.90
38118;DHT22;23928;47.562;7.508;2023-12-20T05:13:19;4.90;99.90
38118;DHT22;23928;47.562;7.508;2023-12-20T05:15:45;5.00;99.90
38118;DHT22;23928;47.562;7.508;2023-12-20T05:18:11;5.10;99.90
38118;DHT22;23928;47.562;7.508;2023-12-20T05:20:36;5.20;99.90
38118;DHT22;23928;47.562;7.508;2023-12-20T05:23:02;5.20;99.90
38118;DHT22;23928;47.562;7.508;2023-12-20T05:25:28;5.20;99.90
38118;DHT22;23928;47.562;7.508;2023-12-20T05:27:53;5.20;99.90
38118;DHT22;23928;47.562;7.508;2023-12-20T05:30:19;5.50;99.90
38118;DHT22;23928;47.562;7.508;2023-12-20T05:32:45;5.60;99.90
38118;DHT22;23928;47.562;7.508;2023-12-20T05:35:10;5.90;99.90
38118;DHT22;23928;47.562;7.508;2023-12-20T05:37:36;6.10;99.90
38118;DHT22;23928;47.562;7.508;2023-12-20T05:40:01;6.20;99.90
38118;DHT22;23928;47.562;7.508;2023-12-20T05:42:27;6.00;99.90
38118;DHT22;23928;47.562;7.508;2023-12-20T05:44:53;6.10;99.90
38118;DHT22;23928;47.562;7.508;2023-12-20T05:47:19;6.10;99.90
38118;DHT22;23928;47.562;7.508;2023-12-20T05:49:45;6.00;99.90
38118;DHT22;23928;47.562;7.508;2023-12-20T05:52:10;5.90;99.90
38118;DHT22;23928;47.562;7.508;2023-12-20T05:54:36;6.00;99.90
38118;DHT22;23928;47.562;7.508;2023-12-20T05:57:02;6.00;99.90
38118;DHT22;23928;47.562;7.508;2023-12-20T05:59:27;5.90;99.90
38118;DHT22;23928;47.562;7.508;2023-12-20T06:01:53;6.10;99.90
38118;DHT22;23928;47.562;7.508;2023-12-20T06:04:19;6.10;99.90
38118;DHT22;23928;47.562;7.508;2023-12-20T06:06:44;6.00;99.90
38118;DHT22;23928;47.562;7.508;2023-12-20T06:09:10;6.00;99.90
38118;DHT22;23928;47.562;7.508;2023-12-20T06:11:37;5.90;99.90
38118;DHT22;23928;47.562;7.508;2023-12-20T06:14:03;6.00;99.90
38118;DHT22;23928;47.562;7.508;2023-12-20T06:16:28;5.90;99.90
38118;DHT22;23928;47.562;7.508;2023-12-20T06:18:54;6.00;99.90
38118;DHT22;23928;47.562;7.508;2023-12-20T06:21:19;6.00;99.90
38118;DHT22;23928;47.562;7.508;2023-12-20T06:23:45;6.00;99.90
38118;DHT22;23928;47.562;7.508;2023-12-20T06:26:11;6.00;99.90
38118;DHT22;23928;47.562;7.508;2023-12-20T06:28:36;6.10;99.90
38118;DHT22;23928;47.562;7.508;2023-12-20T06:31:02;6.10;99.90
38118;DHT22;23928;47.562;7.508;2023-12-20T06:33:28;6.00;99.90
38118;DHT22;23928;47.562;7.508;2023-12-20T06:35:56;6.00;99.90
38118;DHT22;23928;47.562;7.508;2023-12-20T06:38:22;6.00;99.90
38118;DHT22;23928;47.562;7.508;2023-12-20T06:40:47;6.00;99.90
38118;DHT22;23928;47.562;7.508;2023-12-20T06:43:13;6.00;99.90
38118;DHT22;23928;47.562;7.508;2023-12-20T06:45:39;5.90;99.90
38118;DHT22;23928;47.562;7.508;2023-12-20T06:48:05;5.90;99.90
38118;DHT22;23928;47.562;7.508;2023-12-20T06:50:30;5.80;99.90
38118;DHT22;23928;47.562;7.508;2023-12-20T06:52:56;5.80;99.90
38118;DHT22;23928;47.562;7.508;2023-12-20T06:55:21;5.80;99.90
38118;DHT22;23928;47.562;7.508;2023-12-20T06:57:47;5.90;99.90
38118;DHT22;23928;47.562;7.508;2023-12-20T07:00:13;5.90;99.90
38118;DHT22;23928;47.562;7.508;2023-12-20T07:02:39;5.90;99.90
38118;DHT22;23928;47.562;7.508;2023-12-20T07:05:04;5.90;99.90
38118;DHT22;23928;47.562;7.508;2023-12-20T07:07:30;5.90;99.90
38118;DHT22;23928;47.562;7.508;2023-12-20T07:09:56;5.90;99.90
38118;DHT22;23928;47.562;7.508;2023-12-20T07:12:21;5.80;99.90
38118;DHT22;23928;47.562;7.508;2023-12-20T07:14:47;5.90;99.90
38118;DHT22;23928;47.562;7.508;2023-12-20T07:17:13;5.90;99.90
38118;DHT22;23928;47.562;7.508;2023-12-20T07:19:40;6.00;99.90
38118;DHT22;23928;47.562;7.508;2023-12-20T07:22:06;6.00;99.90
38118;DHT22;23928;47.562;7.508;2023-12-20T07:24:32;5.90;99.90
38118;DHT22;23928;47.562;7.508;2023-12-20T07:26:59;5.90;99.90
38118;DHT22;23928;47.562;7.508;2023-12-20T07:29:25;6.00;99.90
38118;DHT22;23928;47.562;7.508;2023-12-20T07:31:50;5.90;99.90
38118;DHT22;23928;47.562;7.508;2023-12-20T07:34:17;5.90;99.90
38118;DHT22;23928;47.562;7.508;2023-12-20T07:36:43;6.00;99.90
38118;DHT22;23928;47.562;7.508;2023-12-20T07:39:09;6.20;99.90
38118;DHT22;23928;47.562;7.508;2023-12-20T07:41:35;6.10;99.90
38118;DHT22;23928;47.562;7.508;2023-12-20T07:44:00;6.20;99.90
38118;DHT22;23928;47.562;7.508;2023-12-20T07:46:26;6.10;99.90
38118;DHT22;23928;47.562;7.508;2023-12-20T07:48:52;6.10;99.90
38118;DHT22;23928;47.562;7.508;2023-12-20T07:51:17;6.10;99.90
38118;DHT22;23928;47.562;7.508;2023-12-20T07:53:43;6.10;99.90
38118;DHT22;23928;47.562;7.508;2023-12-20T07:56:16;6.10;99.90
38118;DHT22;23928;47.562;7.508;2023-12-20T07:58:42;6.20;99.90
38118;DHT22;23928;47.562;7.508;2023-12-20T08:01:08;6.00;99.90
38118;DHT22;23928;47.562;7.508;2023-12-20T08:03:33;6.10;99.90
38118;DHT22;23928;47.562;7.508;2023-12-20T08:05:59;6.20;99.90
38118;DHT22;23928;47.562;7.508;2023-12-20T08:08:25;6.10;99.90
38118;DHT22;23928;47.562;7.508;2023-12-20T08:10:51;6.20;99.90
38118;DHT22;23928;47.562;7.508;2023-12-20T08:13:17;6.20;99.90
38118;DHT22;23928;47.562;7.508;2023-12-20T08:15:42;6.20;99.90
38118;DHT22;23928;47.562;7.508;2023-12-20T08:18:08;6.10;99.90
38118;DHT22;23928;47.562;7.508;2023-12-20T08:20:33;6.20;99.90
38118;DHT22;23928;47.562;7.508;2023-12-20T08:22:59;6.20;99.90
38118;DHT22;23928;47.562;7.508;2023-12-20T08:25:24;6.20;99.90
38118;DHT22;23928;47.562;7.508;2023-12-20T08:27:50;6.20;99.90
38118;DHT22;23928;47.562;7.508;2023-12-20T08:30:16;6.40;99.90
38118;DHT22;23928;47.562;7.508;2023-12-20T08:32:46;6.30;99.90
38118;DHT22;23928;47.562;7.508;2023-12-20T08:35:11;6.40;99.90
38118;DHT22;23928;47.562;7.508;2023-12-20T08:37:37;6.40;99.90
38118;DHT22;23928;47.562;7.508;2023-12-20T08:40:02;6.40;99.90
38118;DHT22;23928;47.562;7.508;2023-12-20T08:42:28;6.50;99.90
38118;DHT22;23928;47.562;7.508;2023-12-20T08:44:57;6.60;99.90
38118;DHT22;23928;47.562;7.508;2023-12-20T08:47:24;6.70;99.90
38118;DHT22;23928;47.562;7.508;2023-12-20T08:49:49;6.60;99.90
38118;DHT22;23928;47.562;7.508;2023-12-20T08:52:15;6.70;99.90
38118;DHT22;23928;47.562;7.508;2023-12-20T08:54:41;6.50;99.90
38118;DHT22;23928;47.562;7.508;2023-12-20T08:57:06;6.50;99.90
38118;DHT22;23928;47.562;7.508;2023-12-20T08:59:32;6.40;99.90
38118;DHT22;23928;47.562;7.508;2023-12-20T09:01:58;6.40;99.90
38118;DHT22;23928;47.562;7.508;2023-12-20T09:04:24;6.30;99.90
38118;DHT22;23928;47.562;7.508;2023-12-20T09:06:49;6.40;99.90
38118;DHT22;23928;47.562;7.508;2023-12-20T09:09:15;6.50;99.90
38118;DHT22;23928;47.562;7.508;2023-12-20T09:11:41;6.50;99.90
38118;DHT22;23928;47.562;7.508;2023-12-20T09:14:07;6.60;99.90
38118;DHT22;23928;47.562;7.508;2023-12-20T09:16:33;6.60;99.90
38118;DHT22;23928;47.562;7.508;2023-12-20T09:18:58;6.80;99.90
38118;DHT22;23928;47.562;7.508;2023-12-20T09:21:24;6.80;99.90
38118;DHT22;23928;47.562;7.508;2023-12-20T09:23:49;6.90;99.90
38118;DHT22;23928;47.562;7.508;2023-12-20T09:26:15;6.90;99.90
38118;DHT22;23928;47.562;7.508;2023-12-20T09:28:41;7.00;99.90
38118;DHT22;23928;47.562;7.508;2023-12-20T09:31:06;7.00;99.90
38118;DHT22;23928;47.562;7.508;2023-12-20T09:33:33;7.10;99.90
38118;DHT22;23928;47.562;7.508;2023-12-20T09:35:59;7.10;99.90
38118;DHT22;23928;47.562;7.508;2023-12-20T09:38:25;7.00;99.90
38118;DHT22;23928;47.562;7.508;2023-12-20T09:40:50;7.00;99.90
38118;DHT22;23928;47.562;7.508;2023-12-20T09:43:20;7.00;99.90
38118;DHT22;23928;47.562;7.508;2023-12-20T09:45:47;7.20;99.90
38118;DHT22;23928;47.562;7.508;2023-12-20T09:48:13;7.20;99.90
38118;DHT22;23928;47.562;7.508;2023-12-20T09:50:43;7.10;99.90
38118;DHT22;23928;47.562;7.508;2023-12-20T09:53:10;7.00;99.90
38118;DHT22;23928;47.562;7.508;2023-12-20T09:55:38;6.80;99.90
38118;DHT22;23928;47.562;7.508;2023-12-20T09:58:05;6.60;99.90
38118;DHT22;23928;47.562;7.508;2023-12-20T10:00:32;6.50;99.90
38118;DHT22;23928;47.562;7.508;2023-12-20T10:02:59;6.30;99.90
38118;DHT22;23928;47.562;7.508;2023-12-20T10:05:29;6.30;99.90
38118;DHT22;23928;47.562;7.508;2023-12-20T10:07:55;6.10;99.90
38118;DHT22;23928;47.562;7.508;2023-12-20T10:10:21;6.10;99.90
38118;DHT22;23928;47.562;7.508;2023-12-20T10:13:03;6.10;99.90
38118;DHT22;23928;47.562;7.508;2023-12-20T10:15:29;6.30;99.90
38118;DHT22;23928;47.562;7.508;2023-12-20T10:17:55;6.40;99.90
38118;DHT22;23928;47.562;7.508;2023-12-20T10:20:21;6.50;99.90
38118;DHT22;23928;47.562;7.508;2023-12-20T10:22:47;6.60;99.90
38118;DHT22;23928;47.562;7.508;2023-12-20T10:25:13;6.50;99.90
38118;DHT22;23928;47.562;7.508;2023-12-20T10:27:38;6.50;99.90
38118;DHT22;23928;47.562;7.508;2023-12-20T10:30:04;6.50;99.90
38118;DHT22;23928;47.562;7.508;2023-12-20T10:32:30;6.50;99.90
38118;DHT22;23928;47.562;7.508;2023-12-20T10:34:56;6.50;99.90
38118;DHT22;23928;47.562;7.508;2023-12-20T10:37:22;6.40;99.90
38118;DHT22;23928;47.562;7.508;2023-12-20T10:39:52;6.40;99.90
38118;DHT22;23928;47.562;7.508;2023-12-20T10:42:22;6.40;99.90
38118;DHT22;23928;47.562;7.508;2023-12-20T10:44:51;6.40;99.90
38118;DHT22;23928;47.562;7.508;2023-12-20T10:47:17;6.40;99.90
38118;DHT22;23928;47.562;7.508;2023-12-20T10:49:43;6.40;99.90
38118;DHT22;23928;47.562;7.508;2023-12-20T10:52:11;6.30;99.90
38118;DHT22;23928;47.562;7.508;2023-12-20T10:54:37;6.30;99.90
38118;DHT22;23928;47.562;7.508;2023-12-20T10:57:05;6.40;99.90
38118;DHT22;23928;47.562;7.508;2023-12-20T10:59:33;6.30;99.90
38118;DHT22;23928;47.562;7.508;2023-12-20T11:01:59;6.20;99.90
38118;DHT22;23928;47.562;7.508;2023-12-20T11:04:47;6.20;99.90
38118;DHT22;23928;47.562;7.508;2023-12-20T11:10:20;6.20;99.90
38118;DHT22;23928;47.562;7.508;2023-12-20T11:12:47;6.30;99.90
38118;DHT22;23928;47.562;7.508;2023-12-20T11:15:14;6.20;99.90
38118;DHT22;23928;47.562;7.508;2023-12-20T11:17:40;6.20;99.90
38118;DHT22;23928;47.562;7.508;2023-12-20T11:20:10;6.10;99.90
38118;DHT22;23928;47.562;7.508;2023-12-20T11:22:40;6.10;99.90
38118;DHT22;23928;47.562;7.508;2023-12-20T11:25:16;6.20;99.90
38118;DHT22;23928;47.562;7.508;2023-12-20T11:27:42;6.10;99.90
38118;DHT22;23928;47.562;7.508;2023-12-20T11:30:09;6.10;99.90
38118;DHT22;23928;47.562;7.508;2023-12-20T11:32:36;6.20;99.90
38118;DHT22;23928;47.562;7.508;2023-12-20T11:35:17;6.20;99.90
38118;DHT22;23928;47.562;7.508;2023-12-20T11:37:45;6.20;99.90
38118;DHT22;23928;47.562;7.508;2023-12-20T11:40:16;6.20;99.90
38118;DHT22;23928;47.562;7.508;2023-12-20T11:42:44;6.20;99.90
38118;DHT22;23928;47.562;7.508;2023-12-20T11:45:14;6.20;99.90
38118;DHT22;23928;47.562;7.508;2023-12-20T11:47:43;6.40;99.90
38118;DHT22;23928;47.562;7.508;2023-12-20T11:50:09;6.30;99.90
38118;DHT22;23928;47.562;7.508;2023-12-20T11:52:35;6.30;99.90
38118;DHT22;23928;47.562;7.508;2023-12-20T11:55:01;6.50;99.90
38118;DHT22;23928;47.562;7.508;2023-12-20T11:57:26;6.50;99.90
38118;DHT22;23928;47.562;7.508;2023-12-20T11:59:52;6.50;99.90
38118;DHT22;23928;47.562;7.508;2023-12-20T12:02:17;6.20;99.90
38118;DHT22;23928;47.562;7.508;2023-12-20T12:04:43;6.00;99.90
38118;DHT22;23928;47.562;7.508;2023-12-20T12:07:08;5.90;99.90
38118;DHT22;23928;47.562;7.508;2023-12-20T12:09:35;5.60;99.90
38118;DHT22;23928;47.562;7.508;2023-12-20T12:12:01;5.70;99.90
38118;DHT22;23928;47.562;7.508;2023-12-20T12:14:27;5.60;99.90
38118;DHT22;23928;47.562;7.508;2023-12-20T12:16:53;5.70;99.90
38118;DHT22;23928;47.562;7.508;2023-12-20T12:19:26;5.60;99.90
38118;DHT22;23928;47.562;7.508;2023-12-20T12:22:13;5.70;99.90
38118;DHT22;23928;47.562;7.508;2023-12-20T12:24:43;5.90;99.90
38118;DHT22;23928;47.562;7.508;2023-12-20T12:27:10;6.00;99.90
38118;DHT22;23928;47.562;7.508;2023-12-20T12:29:36;6.10;99.90
38118;DHT22;23928;47.562;7.508;2023-12-20T12:32:09;6.30;99.90
38118;DHT22;23928;47.562;7.508;2023-12-20T12:34:35;6.30;99.90
38118;DHT22;23928;47.562;7.508;2023-12-20T12:37:01;6.30;99.90
38118;DHT22;23928;47.562;7.508;2023-12-20T12:39:28;6.30;99.90
38118;DHT22;23928;47.562;7.508;2023-12-20T12:41:55;6.20;99.90
38118;DHT22;23928;47.562;7.508;2023-12-20T12:44:21;6.10;99.90
38118;DHT22;23928;47.562;7.508;2023-12-20T12:46:49;6.20;99.90
38118;DHT22;23928;47.562;7.508;2023-12-20T12:49:19;6.10;99.90
38118;DHT22;23928;47.562;7.508;2023-12-20T12:51:46;6.10;99.90
38118;DHT22;23928;47.562;7.508;2023-12-20T12:54:12;6.20;99.90
38118;DHT22;23928;47.562;7.508;2023-12-20T12:56:39;6.20;99.90
38118;DHT22;23928;47.562;7.508;2023-12-20T12:59:05;6.10;99.90
38118;DHT22;23928;47.562;7.508;2023-12-20T13:01:31;6.10;99.90
38118;DHT22;23928;47.562;7.508;2023-12-20T13:03:57;6.20;99.90
38118;DHT22;23928;47.562;7.508;2023-12-20T13:06:22;6.20;99.90
38118;DHT22;23928;47.562;7.508;2023-12-20T13:08:48;6.10;99.90
38118;DHT22;23928;47.562;7.508;2023-12-20T13:11:14;6.10;99.90
38118;DHT22;23928;47.562;7.508;2023-12-20T13:13:39;6.30;99.90
38118;DHT22;23928;47.562;7.508;2023-12-20T13:16:05;6.30;99.90
38118;DHT22;23928;47.562;7.508;2023-12-20T13:18:31;6.20;99.90
38118;DHT22;23928;47.562;7.508;2023-12-20T13:20:56;6.20;99.90
38118;DHT22;23928;47.562;7.508;2023-12-20T13:23:22;6.20;99.90
38118;DHT22;23928;47.562;7.508;2023-12-20T13:25:48;6.30;99.90
38118;DHT22;23928;47.562;7.508;2023-12-20T13:28:13;6.20;99.90
38118;DHT22;23928;47.562;7.508;2023-12-20T13:30:39;6.20;99.90
38118;DHT22;23928;47.562;7.508;2023-12-20T13:33:06;5.90;99.90
38118;DHT22;23928;47.562;7.508;2023-12-20T13:35:32;5.90;99.90
38118;DHT22;23928;47.562;7.508;2023-12-20T13:37:58;5.80;99.90
38118;DHT22;23928;47.562;7.508;2023-12-20T13:40:24;5.60;99.90
38118;DHT22;23928;47.562;7.508;2023-12-20T13:42:50;5.70;99.90
38118;DHT22;23928;47.562;7.508;2023-12-20T13:45:16;5.50;99.90
38118;DHT22;23928;47.562;7.508;2023-12-20T13:47:42;5.50;99.90
38118;DHT22;23928;47.562;7.508;2023-12-20T13:50:07;5.50;99.90
38118;DHT22;23928;47.562;7.508;2023-12-20T13:52:33;5.60;99.90
38118;DHT22;23928;47.562;7.508;2023-12-20T13:54:59;5.60;99.90
38118;DHT22;23928;47.562;7.508;2023-12-20T13:57:24;5.80;99.90
38118;DHT22;23928;47.562;7.508;2023-12-20T13:59:50;5.90;99.90
38118;DHT22;23928;47.562;7.508;2023-12-20T14:02:15;6.00;99.90
38118;DHT22;23928;47.562;7.508;2023-12-20T14:04:42;6.30;99.90
38118;DHT22;23928;47.562;7.508;2023-12-20T14:07:07;6.50;99.90
38118;DHT22;23928;47.562;7.508;2023-12-20T14:09:34;6.50;99.90
38118;DHT22;23928;47.562;7.508;2023-12-20T14:12:00;6.60;99.90
38118;DHT22;23928;47.562;7.508;2023-12-20T14:14:26;6.60;99.90
38118;DHT22;23928;47.562;7.508;2023-12-20T14:16:51;6.50;99.90
38118;DHT22;23928;47.562;7.508;2023-12-20T14:19:17;6.40;99.90
38118;DHT22;23928;47.562;7.508;2023-12-20T14:21:43;6.30;99.90
38118;DHT22;23928;47.562;7.508;2023-12-20T14:24:13;6.20;99.90
38118;DHT22;23928;47.562;7.508;2023-12-20T14:26:40;6.20;99.90
38118;DHT22;23928;47.562;7.508;2023-12-20T14:29:06;6.10;99.90
38118;DHT22;23928;47.562;7.508;2023-12-20T14:31:33;6.10;99.90
38118;DHT22;23928;47.562;7.508;2023-12-20T14:33:58;5.90;99.90
38118;DHT22;23928;47.562;7.508;2023-12-20T14:36:24;5.90;99.90
38118;DHT22;23928;47.562;7.508;2023-12-20T14:38:50;6.00;99.90
38118;DHT22;23928;47.562;7.508;2023-12-20T14:41:16;5.90;99.90
38118;DHT22;23928;47.562;7.508;2023-12-20T14:43:43;5.90;99.90
38118;DHT22;23928;47.562;7.508;2023-12-20T14:46:08;5.90;99.90
38118;DHT22;23928;47.562;7.508;2023-12-20T14:48:34;5.80;99.90
38118;DHT22;23928;47.562;7.508;2023-12-20T14:51:00;5.70;99.90
38118;DHT22;23928;47.562;7.508;2023-12-20T14:53:26;5.60;99.90
38118;DHT22;23928;47.562;7.508;2023-12-20T14:55:52;5.50;99.90
38118;DHT22;23928;47.562;7.508;2023-12-20T14:58:17;5.50;99.90
38118;DHT22;23928;47.562;7.508;2023-12-20T15:00:43;5.30;99.90
38118;DHT22;23928;47.562;7.508;2023-12-20T15:03:10;5.30;99.90
38118;DHT22;23928;47.562;7.508;2023-12-20T15:05:36;5.20;99.90
38118;DHT22;23928;47.562;7.508;2023-12-20T15:08:02;5.10;99.90
38118;DHT22;23928;47.562;7.508;2023-12-20T15:10:27;5.10;99.90
38118;DHT22;23928;47.562;7.508;2023-12-20T15:12:53;5.10;99.90
38118;DHT22;23928;47.562;7.508;2023-12-20T15:15:20;5.10;99.90
38118;DHT22;23928;47.562;7.508;2023-12-20T15:17:46;5.10;99.90
38118;DHT22;23928;47.562;7.508;2023-12-20T15:20:12;5.10;99.90
38118;DHT22;23928;47.562;7.508;2023-12-20T15:22:38;5.00;99.90
38118;DHT22;23928;47.562;7.508;2023-12-20T15:25:06;5.00;99.90
38118;DHT22;23928;47.562;7.508;2023-12-20T15:27:34;5.00;99.90
38118;DHT22;23928;47.562;7.508;2023-12-20T15:30:02;5.00;99.90
38118;DHT22;23928;47.562;7.508;2023-12-20T15:32:28;5.00;99.90
38118;DHT22;23928;47.562;7.508;2023-12-20T15:34:54;5.00;99.90
38118;DHT22;23928;47.562;7.508;2023-12-20T15:37:19;5.00;99.90
38118;DHT22;23928;47.562;7.508;2023-12-20T15:39:45;5.00;99.90
38118;DHT22;23928;47.562;7.508;2023-12-20T15:42:11;4.90;99.90